Camooweal, Australia
Current Conditions -  °F | °C
As of 12:00 PM on Wednesday 22 Oct 2014 (Local Time) from YBMA Reporting Station
Clear Clear  
Wind Chill: 90°   Ceiling: Unl
Heat Index: 90°   Visibility: 6mi
Dew Point: 45°   Wind: 13mph
Humidity: 21%   Direction: 40°NE
Pressure: 30.06"   Gusts: NA
Location:  19.92°S, 138.12°E
Report Text: YBMA 220200Z 04011KT CAVOK 32/07 Q1018
Loading
Personal Weather Stations






























Interactive Weather Map
Tropical Storm Tracking
New forecast layout! Learn more

10-Day Weather Forecast

Advertisements
Track Severe Weather on mobile